Water View, Virginia
Current Conditions -  °F | °C
As of 12:15 PM on Saturday 25 Oct 2014 (Local Time) from KW75 Reporting Station
Clear Clear  
Wind Chill: 64°   Ceiling: Unl
Heat Index: 64°   Visibility: 10mi
Dew Point: 44°   Wind: 7mph
Humidity: 49%   Direction: 280°W
Pressure: 29.95"   Gusts: NA
Location:  37.72°N, 76.61°W
Report Text: KW75 251615Z AUTO 28006KT 10SM CLR 18/07 A2995 RMK AO1 T01790069
Loading
Personal Weather Stations






























Interactive Weather Map
Tropical Storm Tracking
New forecast layout! Learn more

10-Day Weather Forecast

Advertisements
Track Severe Weather on mobile